createdAt,value
2022-09-09T00:02:02.382Z,99895.22
2022-09-09T00:04:34.911Z,99888.06
2022-09-09T00:07:26.022Z,99898.94
2022-09-09T00:10:21.899Z,99900.19
2022-09-09T00:13:06.655Z,99895.31
2022-09-09T00:15:47.863Z,99889.28
2022-09-09T00:18:39.236Z,99899.97
2022-09-09T00:21:12.229Z,99897.53
2022-09-09T00:23:41.240Z,99899.16
2022-09-09T00:26:18.570Z,99898.50
2022-09-09T00:29:02.004Z,99895.97
2022-09-09T00:31:31.094Z,99895.53
2022-09-09T00:34:22.575Z,99893.38
2022-09-09T00:36:52.278Z,99896.56
2022-09-09T00:39:42.853Z,99884.88
2022-09-09T00:42:15.289Z,99886.38
2022-09-09T00:45:21.470Z,99883.47
2022-09-09T00:47:52.006Z,99883.66
2022-09-09T00:50:37.070Z,99888.94
2022-09-09T00:53:25.237Z,99892.03
2022-09-09T00:56:15.158Z,99887.50
2022-09-09T00:58:55.537Z,99894.34
2022-09-09T01:01:22.105Z,99886.03
2022-09-09T01:03:56.798Z,99894.94
2022-09-09T01:06:39.556Z,99894.34
2022-09-09T01:09:15.367Z,99890.91
2022-09-09T01:12:03.513Z,99886.84
2022-09-09T01:14:43.739Z,99892.00
2022-09-09T01:17:19.620Z,99890.91
2022-09-09T01:19:46.222Z,99894.28
2022-09-09T01:22:33.924Z,99888.91
2022-09-09T01:25:19.882Z,99892.13
2022-09-09T01:27:50.490Z,99892.09
2022-09-09T01:30:19.141Z,99886.41
2022-09-09T01:32:57.056Z,99890.69
2022-09-09T01:35:32.633Z,99893.25
2022-09-09T01:37:59.147Z,99891.63
2022-09-09T01:40:27.418Z,99887.81
2022-09-09T01:42:54.699Z,99890.03
2022-09-09T01:45:22.509Z,99891.63
2022-09-09T01:47:49.743Z,99888.41
2022-09-09T01:50:17.386Z,99887.59
2022-09-09T01:52:46.170Z,99886.78
2022-09-09T01:55:13.017Z,99882.41
2022-09-09T01:58:17.906Z,99881.09
2022-09-09T02:00:55.142Z,99886.78
2022-09-09T02:03:36.304Z,99878.59
2022-09-09T02:06:22.075Z,99881.47
2022-09-09T02:08:51.117Z,99881.16
2022-09-09T02:11:20.712Z,99881.88
2022-09-09T02:13:49.324Z,99898.97
2022-09-09T02:16:20.257Z,99882.16
2022-09-09T02:18:49.819Z,99887.31
2022-09-09T02:21:18.447Z,99881.97
2022-09-09T02:23:47.899Z,99885.91
2022-09-09T02:26:21.378Z,99896.59
2022-09-09T02:28:50.728Z,99885.50
2022-09-09T02:31:23.072Z,99880.94
2022-09-09T02:33:55.422Z,99873.13
2022-09-09T02:36:25.041Z,99868.38
2022-09-09T02:38:54.809Z,99867.06
2022-09-09T02:41:27.131Z,99875.53
2022-09-09T02:43:53.673Z,99865.31
2022-09-09T02:46:26.448Z,99868.19
2022-09-09T02:49:08.959Z,99869.59
2022-09-09T02:52:06.782Z,99861.13
2022-09-09T02:54:37.266Z,99866.53
2022-09-09T02:57:06.550Z,99876.06
2022-09-09T02:59:33.416Z,99900.34
2022-09-09T03:02:00.252Z,99875.91
2022-09-09T03:04:26.807Z,99870.19
2022-09-09T03:06:53.204Z,99873.19
2022-09-09T03:09:19.812Z,99879.19
2022-09-09T03:11:46.508Z,99879.22
2022-09-09T03:14:13.023Z,99880.88
2022-09-09T03:16:39.708Z,99890.41
2022-09-09T03:19:07.419Z,99883.31
2022-09-09T03:21:33.947Z,99896.16
2022-09-09T03:24:00.663Z,99888.00
2022-09-09T03:26:27.162Z,99879.25
2022-09-09T03:28:54.356Z,99879.03
2022-09-09T03:31:20.905Z,99881.72
2022-09-09T03:33:47.589Z,99873.88
2022-09-09T03:36:14.265Z,99873.38
2022-09-09T03:38:41.018Z,99880.44
2022-09-09T03:41:08.842Z,99878.84
2022-09-09T03:43:35.896Z,99874.19
2022-09-09T03:46:02.501Z,99877.47
2022-09-09T03:48:29.447Z,99879.91
2022-09-09T03:51:01.736Z,99874.47
2022-09-09T03:53:28.930Z,99875.53
2022-09-09T03:56:01.003Z,99871.13
2022-09-09T03:58:28.867Z,99867.31
2022-09-09T04:00:57.960Z,99865.38
2022-09-09T04:03:27.997Z,99871.06
2022-09-09T04:05:56.463Z,99874.84
2022-09-09T04:08:23.893Z,99878.63
2022-09-09T04:10:50.770Z,99876.66
2022-09-09T04:13:18.737Z,99882.34
2022-09-09T04:15:51.504Z,99878.00
2022-09-09T04:18:20.047Z,99882.56
2022-09-09T04:20:53.759Z,99884.97
2022-09-09T04:23:21.567Z,99883.91
2022-09-09T04:25:55.250Z,99887.13
2022-09-09T04:28:23.795Z,99884.75
2022-09-09T04:30:50.561Z,99890.19
2022-09-09T04:33:18.398Z,99896.44
2022-09-09T04:35:47.497Z,99896.69
2022-09-09T04:38:13.935Z,99894.25
2022-09-09T04:40:43.909Z,99895.53
2022-09-09T04:43:14.369Z,99894.19
2022-09-09T04:45:41.768Z,99896.94
2022-09-09T04:48:08.425Z,99898.53
2022-09-09T04:50:35.299Z,99900.44
2022-09-09T04:53:06.379Z,99902.84
2022-09-09T04:55:34.196Z,99902.59
2022-09-09T04:58:06.076Z,99903.31
2022-09-09T05:00:33.360Z,99913.41
2022-09-09T05:03:04.391Z,99917.41
2022-09-09T05:05:31.239Z,99899.16
2022-09-09T05:08:03.131Z,99910.75
2022-09-09T05:10:29.707Z,99912.09
2022-09-09T05:12:56.228Z,99909.03
2022-09-09T05:15:22.732Z,99911.97
2022-09-09T05:17:49.232Z,99906.16
2022-09-09T05:20:17.572Z,99907.44
2022-09-09T05:22:44.112Z,99908.72
2022-09-09T05:25:10.468Z,99906.66
2022-09-09T05:27:36.949Z,99904.16
2022-09-09T05:30:03.505Z,99913.22
2022-09-09T05:32:35.138Z,99907.22
2022-09-09T05:35:02.582Z,99909.38
2022-09-09T05:37:29.969Z,99914.47
2022-09-09T05:39:56.526Z,99917.13
2022-09-09T05:42:22.987Z,99923.31
2022-09-09T05:44:49.352Z,99921.16
2022-09-09T05:47:16.276Z,99926.34
2022-09-09T05:49:42.722Z,99923.88
2022-09-09T05:52:10.193Z,99923.06
2022-09-09T05:54:38.562Z,99916.88
2022-09-09T05:57:05.137Z,99925.94
2022-09-09T05:59:32.301Z,99919.16
2022-09-09T06:01:58.830Z,99927.94
2022-09-09T06:04:25.895Z,99932.34
2022-09-09T06:06:52.435Z,99931.28
2022-09-09T06:09:18.858Z,99937.94
2022-09-09T06:11:45.333Z,99935.81
2022-09-09T06:14:11.790Z,99938.00
2022-09-09T06:16:43.349Z,99936.19
2022-09-09T06:19:09.845Z,99943.50
2022-09-09T06:21:38.029Z,99940.09
2022-09-09T06:24:05.236Z,99937.81
2022-09-09T06:26:34.003Z,99939.22
2022-09-09T06:29:01.868Z,99935.16
2022-09-09T06:31:31.494Z,99935.16
2022-09-09T06:33:59.780Z,99927.50
2022-09-09T06:36:34.324Z,99921.69
2022-09-09T06:39:01.683Z,99928.78
2022-09-09T06:41:30.795Z,99920.53
2022-09-09T06:43:57.878Z,99928.66
2022-09-09T06:46:29.046Z,99920.38
2022-09-09T06:48:58.258Z,99922.25
2022-09-09T06:51:26.933Z,99927.94
2022-09-09T06:53:55.925Z,99921.66
2022-09-09T06:56:25.514Z,99930.38
2022-09-09T06:58:53.239Z,99923.06
2022-09-09T07:01:24.557Z,99928.50
2022-09-09T07:03:53.436Z,99937.78
2022-09-09T07:06:25.402Z,99933.41
2022-09-09T07:08:57.134Z,99936.69
2022-09-09T07:11:26.836Z,99934.53
2022-09-09T07:13:53.994Z,99931.28
2022-09-09T07:16:22.053Z,99924.00
2022-09-09T07:18:48.510Z,99936.53
2022-09-09T07:21:15.323Z,99927.34
2022-09-09T07:23:42.486Z,99941.38
2022-09-09T07:26:14.448Z,99941.75
2022-09-09T07:28:42.280Z,99928.97
2022-09-09T07:31:16.642Z,99941.75
2022-09-09T07:33:44.351Z,99948.97
2022-09-09T07:36:13.759Z,99944.84
2022-09-09T07:38:41.867Z,99938.66
2022-09-09T07:41:13.293Z,99942.72
2022-09-09T07:43:41.137Z,99941.88
2022-09-09T07:46:08.625Z,99937.53
2022-09-09T07:48:35.555Z,99948.38
2022-09-09T07:51:12.630Z,99951.50
2022-09-09T07:53:39.939Z,99960.38
2022-09-09T07:56:10.267Z,99953.06
2022-09-09T07:58:41.339Z,99949.53
2022-09-09T08:01:25.914Z,99953.59
2022-09-09T08:04:02.159Z,99948.94
2022-09-09T08:06:34.035Z,99950.34
2022-09-09T08:09:00.837Z,99954.16
2022-09-09T08:11:29.588Z,99952.56
2022-09-09T08:14:01.664Z,99955.00
2022-09-09T08:16:38.654Z,99961.78
2022-09-09T08:19:07.496Z,99946.50
2022-09-09T08:21:37.579Z,99962.28
2022-09-09T08:24:05.997Z,99957.59
2022-09-09T08:26:38.856Z,99946.75
2022-09-09T08:29:07.650Z,99940.09
2022-09-09T08:31:49.212Z,99937.66
2022-09-09T08:34:16.255Z,99933.22
2022-09-09T08:36:45.291Z,99937.13
2022-09-09T08:39:14.801Z,99932.81
2022-09-09T08:41:59.731Z,99929.16
2022-09-09T08:44:35.088Z,99931.19
2022-09-09T08:47:23.828Z,99926.31
2022-09-09T08:50:17.457Z,99948.84
2022-09-09T08:53:17.515Z,99941.66
2022-09-09T08:55:49.857Z,99959.00
2022-09-09T08:58:19.679Z,99953.94
2022-09-09T09:01:04.960Z,99947.22
2022-09-09T09:03:36.720Z,99953.50
2022-09-09T09:06:40.477Z,99952.28
2022-09-09T09:09:18.119Z,99959.88
2022-09-09T09:12:19.405Z,99946.75
2022-09-09T09:14:48.393Z,99960.50
2022-09-09T09:17:28.532Z,99963.91
2022-09-09T09:19:55.057Z,99958.13
2022-09-09T09:22:23.390Z,99950.34
2022-09-09T09:25:00.093Z,99957.09
2022-09-09T09:27:34.274Z,99963.16
2022-09-09T09:30:28.524Z,99968.41
2022-09-09T09:33:27.784Z,99953.28
2022-09-09T09:35:54.746Z,99955.25
2022-09-09T09:41:15.345Z,99953.38
2022-09-09T09:43:45.367Z,99969.66
2022-09-09T09:46:27.267Z,99965.84
2022-09-09T09:49:03.317Z,99973.09
2022-09-09T09:51:33.030Z,99962.88
2022-09-09T09:54:14.913Z,99949.22
2022-09-09T09:56:42.487Z,99941.56
2022-09-09T09:59:23.506Z,99951.63
2022-09-09T10:02:26.684Z,99929.88
2022-09-09T10:05:26.918Z,99938.78
2022-09-09T10:08:12.665Z,99933.28
2022-09-09T10:10:48.570Z,99940.06
2022-09-09T10:13:33.560Z,99965.09
2022-09-09T10:16:19.711Z,99937.47
2022-09-09T10:19:22.072Z,99938.31
2022-09-09T10:22:07.766Z,99944.19
2022-09-09T10:24:45.640Z,99936.94
2022-09-09T10:27:30.930Z,99933.31
2022-09-09T10:30:19.174Z,99945.06
2022-09-09T10:33:11.724Z,99946.72
2022-09-09T10:35:57.218Z,99944.44
2022-09-09T10:38:40.070Z,99953.38
2022-09-09T10:41:19.258Z,99947.78
2022-09-09T10:44:14.742Z,99932.22
2022-09-09T10:47:16.317Z,99926.63
2022-09-09T10:50:07.134Z,99924.09
2022-09-09T10:53:14.834Z,99928.38
2022-09-09T10:55:47.859Z,99927.09
2022-09-09T10:58:40.063Z,99905.78
2022-09-09T11:01:22.339Z,99910.16
2022-09-09T11:03:56.468Z,99927.75
2022-09-09T11:06:30.445Z,99920.66
2022-09-09T11:09:00.839Z,99912.56
2022-09-09T11:11:38.899Z,99902.06
2022-09-09T11:14:37.370Z,99907.25
2022-09-09T11:17:17.067Z,99905.78
2022-09-09T11:19:45.449Z,99905.47
2022-09-09T11:22:37.289Z,99911.13
2022-09-09T11:25:16.271Z,99915.78
2022-09-09T11:28:03.292Z,99918.72
2022-09-09T11:30:56.442Z,99917.41
2022-09-09T11:33:42.311Z,99921.63
2022-09-09T11:36:46.067Z,99924.03
2022-09-09T11:39:38.424Z,99918.88
2022-09-09T11:42:25.384Z,99927.41
2022-09-09T11:44:52.927Z,99932.25
2022-09-09T11:47:30.540Z,99926.13
2022-09-09T11:50:31.906Z,99915.16
2022-09-09T11:53:23.890Z,99908.03
2022-09-09T11:56:14.595Z,99909.97
2022-09-09T11:58:44.703Z,99927.41
2022-09-09T12:01:34.593Z,99921.25
2022-09-09T12:04:09.797Z,99919.00
2022-09-09T12:06:56.204Z,99920.31
2022-09-09T12:09:27.146Z,99915.47
2022-09-09T12:11:54.288Z,99920.97
2022-09-09T12:14:23.813Z,99916.44
2022-09-09T12:16:51.841Z,99914.66
2022-09-09T12:19:26.408Z,99920.97
2022-09-09T12:22:07.235Z,99915.84
2022-09-09T12:24:50.836Z,99917.44
2022-09-09T12:27:27.709Z,99915.31
2022-09-09T12:30:12.913Z,99913.56
2022-09-09T12:32:40.343Z,99912.91
2022-09-09T12:35:14.938Z,99917.75
2022-09-09T12:37:47.702Z,99911.28
2022-09-09T12:40:26.357Z,99920.31
2022-09-09T12:42:53.105Z,99910.16
2022-09-09T12:45:22.110Z,99914.19
2022-09-09T12:48:09.425Z,99921.19
2022-09-09T12:50:38.050Z,99906.16
2022-09-09T12:53:32.934Z,99916.19
2022-09-09T12:56:09.049Z,99932.78
2022-09-09T12:58:38.262Z,99928.75
2022-09-09T13:01:06.521Z,99933.88
2022-09-09T13:03:34.948Z,99929.69
2022-09-09T13:06:21.666Z,99934.72
2022-09-09T13:08:52.141Z,99930.00
2022-09-09T13:11:24.678Z,99921.25
2022-09-09T13:13:55.341Z,99933.03
2022-09-09T13:16:24.179Z,99940.09
2022-09-09T13:18:50.994Z,99934.47
2022-09-09T13:21:18.042Z,99933.97
2022-09-09T13:23:50.390Z,99933.81
2022-09-09T13:26:26.735Z,99925.44
2022-09-09T13:29:08.451Z,99902.38
2022-09-09T13:31:38.017Z,99901.22
2022-09-09T13:34:15.266Z,99906.41
2022-09-09T13:36:42.564Z,99909.31
2022-09-09T13:39:21.358Z,99908.34
2022-09-09T13:41:49.599Z,99908.22
2022-09-09T13:44:24.619Z,99901.59
2022-09-09T13:47:10.225Z,99901.91
2022-09-09T13:49:37.704Z,99905.13
2022-09-09T13:52:12.963Z,99899.66
2022-09-09T13:54:40.251Z,99899.81
2022-09-09T13:57:15.136Z,99895.94
2022-09-09T14:00:03.763Z,99891.44
2022-09-09T14:02:28.006Z,99886.25
2022-09-09T14:04:56.602Z,99892.13
2022-09-09T14:07:23.170Z,99880.31
2022-09-09T14:09:51.088Z,99887.25
2022-09-09T14:12:17.858Z,99889.38
2022-09-09T14:14:44.897Z,99887.41
2022-09-09T14:17:11.713Z,99885.00
2022-09-09T14:19:38.288Z,99880.63
2022-09-09T14:22:04.844Z,99870.28
2022-09-09T14:24:31.286Z,99874.50
2022-09-09T14:26:57.790Z,99868.84
2022-09-09T14:29:26.059Z,99873.69
2022-09-09T14:31:52.512Z,99873.50
2022-09-09T14:34:19.466Z,99873.66
2022-09-09T14:36:46.788Z,99876.56
2022-09-09T14:39:13.260Z,99876.72
2022-09-09T14:41:39.665Z,99878.00
2022-09-09T14:44:06.093Z,99869.91
2022-09-09T14:46:33.505Z,99873.97
2022-09-09T14:49:00.357Z,99871.22
2022-09-09T14:51:29.211Z,99859.94
2022-09-09T14:53:58.217Z,99854.28
2022-09-09T14:56:30.686Z,99850.88
2022-09-09T14:58:59.029Z,99846.50
2022-09-09T15:01:30.312Z,99844.78
2022-09-09T15:03:59.815Z,99842.66
2022-09-09T15:06:28.775Z,99860.25
2022-09-09T15:08:56.145Z,99850.88
2022-09-09T15:11:25.566Z,99849.69
2022-09-09T15:13:55.806Z,99853.25
2022-09-09T15:16:25.230Z,99861.16
2022-09-09T15:18:55.237Z,99855.16
2022-09-09T15:21:23.923Z,99851.41
2022-09-09T15:23:51.886Z,99860.44
2022-09-09T15:26:18.977Z,99855.88
2022-09-09T15:28:48.233Z,99853.75
2022-09-09T15:31:19.516Z,99853.25
2022-09-09T15:34:03.418Z,99864.03
2022-09-09T15:36:35.194Z,99857.56
2022-09-09T15:39:03.851Z,99854.50
2022-09-09T15:41:32.657Z,99854.66
2022-09-09T22:45:57.218Z,100045.59
2022-09-09T22:48:24.727Z,100045.34
2022-09-09T22:50:51.225Z,100050.50
2022-09-09T22:53:18.862Z,100048.94
2022-09-09T22:56:01.421Z,100042.00
2022-09-09T22:58:31.648Z,100043.75
2022-09-09T23:00:59.452Z,100040.81
2022-09-09T23:03:27.450Z,100033.94
2022-09-09T23:05:58.999Z,100041.53
2022-09-09T23:08:32.358Z,100036.38
2022-09-09T23:11:09.034Z,100031.66
2022-09-09T23:13:41.561Z,100026.78
2022-09-09T23:16:14.072Z,100030.13
2022-09-09T23:18:41.290Z,100032.16
2022-09-09T23:21:08.907Z,100036.88
2022-09-09T23:23:35.475Z,100030.91
2022-09-09T23:26:05.320Z,100038.06
2022-09-09T23:28:33.087Z,100033.16
2022-09-09T23:30:59.757Z,100028.59
2022-09-09T23:33:26.627Z,100030.00
2022-09-09T23:36:07.947Z,100032.97
2022-09-09T23:38:35.881Z,100024.56
2022-09-09T23:41:02.779Z,100020.78
2022-09-09T23:43:29.300Z,100024.63
2022-09-09T23:45:57.088Z,100013.47
2022-09-09T23:48:27.241Z,100020.31
2022-09-09T23:50:55.090Z,100019.81
2022-09-09T23:53:22.241Z,100016.56
2022-09-09T23:55:48.791Z,100021.50
2022-09-09T23:58:15.522Z,100014.72
